sensor_id;sensor_type;location;lat;lon;timestamp;P1;durP1;ratioP1;P2;durP2;ratioP2
71867;SDS011;59738;48.324;14.230;2022-08-03T00:01:28;3.97;;;2.40;;
71867;SDS011;59738;48.324;14.230;2022-08-03T00:03:55;3.63;;;2.10;;
71867;SDS011;59738;48.324;14.230;2022-08-03T00:06:23;3.00;;;2.25;;
71867;SDS011;59738;48.324;14.230;2022-08-03T00:08:51;4.82;;;2.67;;
71867;SDS011;59738;48.324;14.230;2022-08-03T00:11:18;3.08;;;2.33;;
71867;SDS011;59738;48.324;14.230;2022-08-03T00:13:47;6.73;;;2.40;;
71867;SDS011;59738;48.324;14.230;2022-08-03T00:16:15;4.68;;;2.10;;
71867;SDS011;59738;48.324;14.230;2022-08-03T00:18:43;3.72;;;2.30;;
71867;SDS011;59738;48.324;14.230;2022-08-03T00:21:11;4.28;;;2.40;;
71867;SDS011;59738;48.324;14.230;2022-08-03T00:23:39;3.63;;;2.47;;
71867;SDS011;59738;48.324;14.230;2022-08-03T00:26:06;4.50;;;2.53;;
71867;SDS011;59738;48.324;14.230;2022-08-03T00:28:34;4.90;;;2.97;;
71867;SDS011;59738;48.324;14.230;2022-08-03T00:31:03;4.93;;;2.70;;
71867;SDS011;59738;48.324;14.230;2022-08-03T00:33:31;2.72;;;2.53;;
71867;SDS011;59738;48.324;14.230;2022-08-03T00:35:59;6.30;;;3.00;;
71867;SDS011;59738;48.324;14.230;2022-08-03T00:38:26;5.93;;;2.70;;
71867;SDS011;59738;48.324;14.230;2022-08-03T00:40:54;4.30;;;2.88;;
71867;SDS011;59738;48.324;14.230;2022-08-03T00:43:23;2.70;;;2.50;;
71867;SDS011;59738;48.324;14.230;2022-08-03T00:45:51;3.80;;;2.47;;
71867;SDS011;59738;48.324;14.230;2022-08-03T00:48:21;4.72;;;2.78;;
71867;SDS011;59738;48.324;14.230;2022-08-03T00:50:49;3.87;;;2.60;;
71867;SDS011;59738;48.324;14.230;2022-08-03T00:53:17;3.22;;;2.13;;
71867;SDS011;59738;48.324;14.230;2022-08-03T00:55:45;5.57;;;2.88;;
71867;SDS011;59738;48.324;14.230;2022-08-03T00:58:13;3.17;;;2.40;;
71867;SDS011;59738;48.324;14.230;2022-08-03T01:00:41;5.57;;;3.00;;
71867;SDS011;59738;48.324;14.230;2022-08-03T01:03:09;5.97;;;2.90;;
71867;SDS011;59738;48.324;14.230;2022-08-03T01:05:43;4.28;;;2.65;;
71867;SDS011;59738;48.324;14.230;2022-08-03T01:08:18;7.60;;;3.25;;
71867;SDS011;59738;48.324;14.230;2022-08-03T01:11:01;4.20;;;2.50;;
71867;SDS011;59738;48.324;14.230;2022-08-03T01:13:38;4.85;;;2.63;;
71867;SDS011;59738;48.324;14.230;2022-08-03T01:16:14;3.33;;;2.60;;
71867;SDS011;59738;48.324;14.230;2022-08-03T01:18:49;5.32;;;2.40;;
71867;SDS011;59738;48.324;14.230;2022-08-03T01:21:25;6.13;;;2.75;;
71867;SDS011;59738;48.324;14.230;2022-08-03T01:24:04;7.05;;;2.30;;
71867;SDS011;59738;48.324;14.230;2022-08-03T01:26:48;4.60;;;2.88;;
71867;SDS011;59738;48.324;14.230;2022-08-03T01:29:37;5.33;;;3.03;;
71867;SDS011;59738;48.324;14.230;2022-08-03T01:32:17;3.25;;;2.35;;
71867;SDS011;59738;48.324;14.230;2022-08-03T01:34:48;3.60;;;2.42;;
71867;SDS011;59738;48.324;14.230;2022-08-03T01:37:20;4.05;;;2.30;;
71867;SDS011;59738;48.324;14.230;2022-08-03T01:39:54;3.92;;;2.70;;
71867;SDS011;59738;48.324;14.230;2022-08-03T01:42:24;7.00;;;2.70;;
71867;SDS011;59738;48.324;14.230;2022-08-03T01:44:54;3.00;;;2.38;;
71867;SDS011;59738;48.324;14.230;2022-08-03T01:47:25;3.50;;;2.20;;
71867;SDS011;59738;48.324;14.230;2022-08-03T01:49:54;5.38;;;2.35;;
71867;SDS011;59738;48.324;14.230;2022-08-03T01:52:23;4.05;;;2.53;;
71867;SDS011;59738;48.324;14.230;2022-08-03T01:54:52;5.97;;;2.67;;
71867;SDS011;59738;48.324;14.230;2022-08-03T01:57:20;5.13;;;2.70;;
71867;SDS011;59738;48.324;14.230;2022-08-03T01:59:49;6.35;;;2.90;;
71867;SDS011;59738;48.324;14.230;2022-08-03T02:02:20;4.72;;;2.58;;
71867;SDS011;59738;48.324;14.230;2022-08-03T02:04:49;3.15;;;2.58;;
71867;SDS011;59738;48.324;14.230;2022-08-03T02:07:20;3.20;;;2.53;;
71867;SDS011;59738;48.324;14.230;2022-08-03T02:09:49;2.92;;;2.40;;
71867;SDS011;59738;48.324;14.230;2022-08-03T02:12:18;6.68;;;2.45;;
71867;SDS011;59738;48.324;14.230;2022-08-03T02:14:48;4.88;;;2.70;;
71867;SDS011;59738;48.324;14.230;2022-08-03T02:17:17;4.78;;;2.60;;
71867;SDS011;59738;48.324;14.230;2022-08-03T02:19:47;3.00;;;2.40;;
71867;SDS011;59738;48.324;14.230;2022-08-03T02:22:17;3.22;;;2.72;;
71867;SDS011;59738;48.324;14.230;2022-08-03T02:24:44;4.55;;;3.03;;
71867;SDS011;59738;48.324;14.230;2022-08-03T02:27:14;5.13;;;2.95;;
71867;SDS011;59738;48.324;14.230;2022-08-03T02:29:45;4.30;;;3.08;;
71867;SDS011;59738;48.324;14.230;2022-08-03T02:32:18;5.37;;;3.10;;
71867;SDS011;59738;48.324;14.230;2022-08-03T02:34:52;5.78;;;3.55;;
71867;SDS011;59738;48.324;14.230;2022-08-03T02:37:23;5.57;;;3.33;;
71867;SDS011;59738;48.324;14.230;2022-08-03T02:39:55;6.10;;;3.50;;
71867;SDS011;59738;48.324;14.230;2022-08-03T02:42:27;5.53;;;3.70;;
71867;SDS011;59738;48.324;14.230;2022-08-03T02:44:56;5.57;;;3.63;;
71867;SDS011;59738;48.324;14.230;2022-08-03T02:47:29;7.22;;;4.00;;
71867;SDS011;59738;48.324;14.230;2022-08-03T02:49:59;6.82;;;4.63;;
71867;SDS011;59738;48.324;14.230;2022-08-03T02:52:29;6.38;;;4.28;;
71867;SDS011;59738;48.324;14.230;2022-08-03T02:54:59;6.22;;;3.80;;
71867;SDS011;59738;48.324;14.230;2022-08-03T02:57:29;5.40;;;3.47;;
71867;SDS011;59738;48.324;14.230;2022-08-03T02:59:59;6.40;;;3.30;;
71867;SDS011;59738;48.324;14.230;2022-08-03T03:02:29;5.90;;;2.88;;
71867;SDS011;59738;48.324;14.230;2022-08-03T03:04:57;4.50;;;2.80;;
71867;SDS011;59738;48.324;14.230;2022-08-03T03:07:27;3.60;;;3.10;;
71867;SDS011;59738;48.324;14.230;2022-08-03T03:09:56;8.10;;;3.00;;
71867;SDS011;59738;48.324;14.230;2022-08-03T03:12:24;6.53;;;2.90;;
71867;SDS011;59738;48.324;14.230;2022-08-03T03:14:53;6.88;;;3.15;;
71867;SDS011;59738;48.324;14.230;2022-08-03T03:17:21;5.32;;;3.22;;
71867;SDS011;59738;48.324;14.230;2022-08-03T03:19:52;4.30;;;3.00;;
71867;SDS011;59738;48.324;14.230;2022-08-03T03:22:21;6.47;;;2.90;;
71867;SDS011;59738;48.324;14.230;2022-08-03T03:24:50;6.20;;;3.08;;
71867;SDS011;59738;48.324;14.230;2022-08-03T03:27:19;3.83;;;2.80;;
71867;SDS011;59738;48.324;14.230;2022-08-03T03:29:48;3.35;;;2.78;;
71867;SDS011;59738;48.324;14.230;2022-08-03T03:32:16;5.68;;;3.20;;
71867;SDS011;59738;48.324;14.230;2022-08-03T03:34:44;6.30;;;3.50;;
71867;SDS011;59738;48.324;14.230;2022-08-03T03:37:14;5.93;;;3.45;;
71867;SDS011;59738;48.324;14.230;2022-08-03T03:39:41;5.10;;;3.38;;
71867;SDS011;59738;48.324;14.230;2022-08-03T03:42:09;5.20;;;3.35;;
71867;SDS011;59738;48.324;14.230;2022-08-03T03:44:37;9.73;;;3.78;;
71867;SDS011;59738;48.324;14.230;2022-08-03T03:47:05;5.30;;;3.30;;
71867;SDS011;59738;48.324;14.230;2022-08-03T03:49:32;5.38;;;3.30;;
71867;SDS011;59738;48.324;14.230;2022-08-03T03:52:03;6.55;;;3.55;;
71867;SDS011;59738;48.324;14.230;2022-08-03T03:54:39;6.88;;;3.28;;
71867;SDS011;59738;48.324;14.230;2022-08-03T03:57:07;8.93;;;3.80;;
71867;SDS011;59738;48.324;14.230;2022-08-03T03:59:36;5.20;;;3.67;;
71867;SDS011;59738;48.324;14.230;2022-08-03T04:02:04;5.57;;;3.03;;
71867;SDS011;59738;48.324;14.230;2022-08-03T04:04:32;7.32;;;3.70;;
71867;SDS011;59738;48.324;14.230;2022-08-03T04:07:18;5.72;;;3.53;;
71867;SDS011;59738;48.324;14.230;2022-08-03T04:10:15;7.13;;;3.58;;
71867;SDS011;59738;48.324;14.230;2022-08-03T04:13:05;4.27;;;3.67;;
71867;SDS011;59738;48.324;14.230;2022-08-03T04:15:36;9.63;;;4.00;;
71867;SDS011;59738;48.324;14.230;2022-08-03T04:18:05;5.55;;;3.67;;
71867;SDS011;59738;48.324;14.230;2022-08-03T04:20:35;8.00;;;3.47;;
71867;SDS011;59738;48.324;14.230;2022-08-03T04:23:05;4.82;;;3.58;;
71867;SDS011;59738;48.324;14.230;2022-08-03T04:25:34;4.23;;;3.50;;
71867;SDS011;59738;48.324;14.230;2022-08-03T04:28:05;6.03;;;3.58;;
71867;SDS011;59738;48.324;14.230;2022-08-03T04:30:35;6.53;;;3.97;;
71867;SDS011;59738;48.324;14.230;2022-08-03T04:33:05;8.90;;;5.53;;
71867;SDS011;59738;48.324;14.230;2022-08-03T04:35:33;5.18;;;3.85;;
71867;SDS011;59738;48.324;14.230;2022-08-03T04:38:04;5.60;;;3.60;;
71867;SDS011;59738;48.324;14.230;2022-08-03T04:40:35;7.53;;;4.15;;
71867;SDS011;59738;48.324;14.230;2022-08-03T04:43:05;5.45;;;3.97;;
71867;SDS011;59738;48.324;14.230;2022-08-03T04:45:34;6.40;;;3.63;;
71867;SDS011;59738;48.324;14.230;2022-08-03T04:48:04;6.78;;;5.20;;
71867;SDS011;59738;48.324;14.230;2022-08-03T04:50:32;10.50;;;6.37;;
71867;SDS011;59738;48.324;14.230;2022-08-03T04:53:04;11.52;;;5.63;;
71867;SDS011;59738;48.324;14.230;2022-08-03T04:55:32;10.15;;;4.30;;
71867;SDS011;59738;48.324;14.230;2022-08-03T04:58:02;4.97;;;3.42;;
71867;SDS011;59738;48.324;14.230;2022-08-03T05:00:31;4.50;;;3.25;;
71867;SDS011;59738;48.324;14.230;2022-08-03T05:02:58;3.63;;;3.30;;
71867;SDS011;59738;48.324;14.230;2022-08-03T05:05:26;8.00;;;3.20;;
71867;SDS011;59738;48.324;14.230;2022-08-03T05:07:54;4.40;;;2.78;;
71867;SDS011;59738;48.324;14.230;2022-08-03T05:10:22;5.18;;;2.83;;
71867;SDS011;59738;48.324;14.230;2022-08-03T05:12:51;5.55;;;2.95;;
71867;SDS011;59738;48.324;14.230;2022-08-03T05:15:18;4.20;;;2.70;;
71867;SDS011;59738;48.324;14.230;2022-08-03T05:17:46;4.05;;;3.13;;
71867;SDS011;59738;48.324;14.230;2022-08-03T05:20:14;6.57;;;2.80;;
71867;SDS011;59738;48.324;14.230;2022-08-03T05:22:41;3.88;;;2.53;;
71867;SDS011;59738;48.324;14.230;2022-08-03T05:25:09;4.50;;;2.90;;
71867;SDS011;59738;48.324;14.230;2022-08-03T05:27:38;5.80;;;2.97;;
71867;SDS011;59738;48.324;14.230;2022-08-03T05:30:07;5.00;;;2.45;;
71867;SDS011;59738;48.324;14.230;2022-08-03T05:32:35;3.50;;;2.70;;
71867;SDS011;59738;48.324;14.230;2022-08-03T05:35:03;3.13;;;2.60;;
71867;SDS011;59738;48.324;14.230;2022-08-03T05:37:32;5.32;;;2.80;;
71867;SDS011;59738;48.324;14.230;2022-08-03T05:40:00;4.77;;;2.67;;
71867;SDS011;59738;48.324;14.230;2022-08-03T05:42:27;4.57;;;2.60;;
71867;SDS011;59738;48.324;14.230;2022-08-03T05:44:55;5.90;;;3.15;;
71867;SDS011;59738;48.324;14.230;2022-08-03T05:47:24;11.25;;;4.53;;
71867;SDS011;59738;48.324;14.230;2022-08-03T05:49:52;6.43;;;3.97;;
71867;SDS011;59738;48.324;14.230;2022-08-03T05:52:19;6.63;;;3.30;;
71867;SDS011;59738;48.324;14.230;2022-08-03T05:54:47;7.50;;;3.20;;
71867;SDS011;59738;48.324;14.230;2022-08-03T05:57:15;4.75;;;2.92;;
71867;SDS011;59738;48.324;14.230;2022-08-03T05:59:42;5.28;;;2.78;;
71867;SDS011;59738;48.324;14.230;2022-08-03T06:02:10;6.57;;;2.63;;
71867;SDS011;59738;48.324;14.230;2022-08-03T06:04:39;4.17;;;3.07;;
71867;SDS011;59738;48.324;14.230;2022-08-03T06:07:07;6.72;;;2.88;;
71867;SDS011;59738;48.324;14.230;2022-08-03T06:09:34;6.10;;;3.20;;
71867;SDS011;59738;48.324;14.230;2022-08-03T06:12:02;5.25;;;2.80;;
71867;SDS011;59738;48.324;14.230;2022-08-03T06:14:30;5.40;;;3.35;;
71867;SDS011;59738;48.324;14.230;2022-08-03T06:16:58;8.23;;;3.93;;
71867;SDS011;59738;48.324;14.230;2022-08-03T06:19:26;13.13;;;4.32;;
71867;SDS011;59738;48.324;14.230;2022-08-03T06:21:55;12.48;;;4.78;;
71867;SDS011;59738;48.324;14.230;2022-08-03T06:24:23;8.45;;;4.22;;
71867;SDS011;59738;48.324;14.230;2022-08-03T06:26:51;10.43;;;3.97;;
71867;SDS011;59738;48.324;14.230;2022-08-03T06:29:18;7.63;;;4.10;;
71867;SDS011;59738;48.324;14.230;2022-08-03T06:31:46;9.35;;;4.60;;
71867;SDS011;59738;48.324;14.230;2022-08-03T06:34:14;9.20;;;4.30;;
71867;SDS011;59738;48.324;14.230;2022-08-03T06:36:41;11.80;;;5.32;;
71867;SDS011;59738;48.324;14.230;2022-08-03T06:39:10;10.18;;;4.97;;
71867;SDS011;59738;48.324;14.230;2022-08-03T06:41:38;14.33;;;4.67;;
71867;SDS011;59738;48.324;14.230;2022-08-03T06:44:07;8.65;;;4.68;;
71867;SDS011;59738;48.324;14.230;2022-08-03T06:46:35;7.80;;;4.38;;
71867;SDS011;59738;48.324;14.230;2022-08-03T06:49:03;11.30;;;5.38;;
71867;SDS011;59738;48.324;14.230;2022-08-03T06:51:30;8.55;;;4.63;;
71867;SDS011;59738;48.324;14.230;2022-08-03T06:53:58;6.30;;;3.57;;
71867;SDS011;59738;48.324;14.230;2022-08-03T06:56:27;8.73;;;3.63;;
71867;SDS011;59738;48.324;14.230;2022-08-03T06:58:55;8.73;;;4.20;;
71867;SDS011;59738;48.324;14.230;2022-08-03T07:01:22;8.75;;;4.32;;
71867;SDS011;59738;48.324;14.230;2022-08-03T07:03:50;8.25;;;4.45;;
71867;SDS011;59738;48.324;14.230;2022-08-03T07:06:19;7.97;;;4.60;;
71867;SDS011;59738;48.324;14.230;2022-08-03T07:08:47;7.57;;;4.13;;
71867;SDS011;59738;48.324;14.230;2022-08-03T07:11:14;7.18;;;4.57;;
71867;SDS011;59738;48.324;14.230;2022-08-03T07:13:44;7.63;;;4.60;;
71867;SDS011;59738;48.324;14.230;2022-08-03T07:16:11;10.50;;;4.57;;
71867;SDS011;59738;48.324;14.230;2022-08-03T07:18:39;8.10;;;4.57;;
71867;SDS011;59738;48.324;14.230;2022-08-03T07:21:07;6.82;;;4.15;;
71867;SDS011;59738;48.324;14.230;2022-08-03T07:23:35;6.22;;;3.78;;
71867;SDS011;59738;48.324;14.230;2022-08-03T07:26:03;6.68;;;4.07;;
71867;SDS011;59738;48.324;14.230;2022-08-03T07:28:31;5.57;;;3.58;;
71867;SDS011;59738;48.324;14.230;2022-08-03T07:31:00;3.80;;;3.00;;
71867;SDS011;59738;48.324;14.230;2022-08-03T07:33:28;3.80;;;2.95;;
71867;SDS011;59738;48.324;14.230;2022-08-03T07:35:55;7.18;;;3.10;;
71867;SDS011;59738;48.324;14.230;2022-08-03T07:38:23;4.15;;;3.17;;
71867;SDS011;59738;48.324;14.230;2022-08-03T07:40:51;6.45;;;3.38;;
71867;SDS011;59738;48.324;14.230;2022-08-03T07:43:19;4.90;;;2.60;;
71867;SDS011;59738;48.324;14.230;2022-08-03T07:45:49;5.63;;;3.15;;
71867;SDS011;59738;48.324;14.230;2022-08-03T07:48:18;4.60;;;2.90;;
71867;SDS011;59738;48.324;14.230;2022-08-03T07:50:45;2.90;;;2.60;;
71867;SDS011;59738;48.324;14.230;2022-08-03T07:53:13;3.20;;;2.90;;
71867;SDS011;59738;48.324;14.230;2022-08-03T07:55:41;3.53;;;2.93;;
71867;SDS011;59738;48.324;14.230;2022-08-03T07:58:09;4.20;;;3.25;;
71867;SDS011;59738;48.324;14.230;2022-08-03T08:00:40;3.40;;;2.95;;
71867;SDS011;59738;48.324;14.230;2022-08-03T08:03:09;5.75;;;2.80;;
71867;SDS011;59738;48.324;14.230;2022-08-03T08:05:39;4.60;;;3.05;;
71867;SDS011;59738;48.324;14.230;2022-08-03T08:08:07;5.33;;;2.93;;
71867;SDS011;59738;48.324;14.230;2022-08-03T08:10:34;3.40;;;2.90;;
71867;SDS011;59738;48.324;14.230;2022-08-03T08:13:02;4.25;;;2.75;;
71867;SDS011;59738;48.324;14.230;2022-08-03T08:15:30;4.85;;;3.25;;
71867;SDS011;59738;48.324;14.230;2022-08-03T08:17:59;5.00;;;3.53;;
71867;SDS011;59738;48.324;14.230;2022-08-03T08:20:28;3.60;;;2.90;;
71867;SDS011;59738;48.324;14.230;2022-08-03T08:22:59;4.85;;;3.28;;
71867;SDS011;59738;48.324;14.230;2022-08-03T08:25:28;3.83;;;3.13;;
71867;SDS011;59738;48.324;14.230;2022-08-03T08:27:57;3.28;;;2.97;;
71867;SDS011;59738;48.324;14.230;2022-08-03T08:30:27;4.55;;;3.33;;
71867;SDS011;59738;48.324;14.230;2022-08-03T08:32:55;4.43;;;2.90;;
71867;SDS011;59738;48.324;14.230;2022-08-03T08:35:23;4.15;;;2.70;;
71867;SDS011;59738;48.324;14.230;2022-08-03T08:37:50;3.17;;;2.88;;
71867;SDS011;59738;48.324;14.230;2022-08-03T08:40:21;3.22;;;2.70;;
71867;SDS011;59738;48.324;14.230;2022-08-03T08:42:48;2.72;;;2.50;;
71867;SDS011;59738;48.324;14.230;2022-08-03T08:45:16;3.97;;;2.67;;
71867;SDS011;59738;48.324;14.230;2022-08-03T08:47:45;6.80;;;2.65;;
71867;SDS011;59738;48.324;14.230;2022-08-03T08:50:16;5.63;;;2.55;;
71867;SDS011;59738;48.324;14.230;2022-08-03T08:52:45;3.03;;;2.33;;
71867;SDS011;59738;48.324;14.230;2022-08-03T08:55:17;3.22;;;2.92;;
71867;SDS011;59738;48.324;14.230;2022-08-03T08:57:49;6.73;;;2.70;;
71867;SDS011;59738;48.324;14.230;2022-08-03T09:00:22;2.80;;;2.60;;
71867;SDS011;59738;48.324;14.230;2022-08-03T09:02:49;4.45;;;2.50;;
71867;SDS011;59738;48.324;14.230;2022-08-03T09:05:18;4.15;;;2.70;;
71867;SDS011;59738;48.324;14.230;2022-08-03T09:07:46;3.92;;;2.67;;
71867;SDS011;59738;48.324;14.230;2022-08-03T09:10:15;4.00;;;2.70;;
71867;SDS011;59738;48.324;14.230;2022-08-03T09:12:48;3.28;;;2.40;;
71867;SDS011;59738;48.324;14.230;2022-08-03T09:15:17;3.92;;;2.63;;
71867;SDS011;59738;48.324;14.230;2022-08-03T09:17:47;4.90;;;2.65;;
71867;SDS011;59738;48.324;14.230;2022-08-03T09:20:16;3.70;;;2.83;;
71867;SDS011;59738;48.324;14.230;2022-08-03T09:22:50;2.83;;;2.33;;
71867;SDS011;59738;48.324;14.230;2022-08-03T09:25:25;3.08;;;2.85;;
71867;SDS011;59738;48.324;14.230;2022-08-03T09:28:04;4.50;;;2.80;;
71867;SDS011;59738;48.324;14.230;2022-08-03T09:30:34;3.97;;;2.58;;
71867;SDS011;59738;48.324;14.230;2022-08-03T09:33:04;3.00;;;2.70;;
71867;SDS011;59738;48.324;14.230;2022-08-03T09:35:32;6.47;;;2.53;;
71867;SDS011;59738;48.324;14.230;2022-08-03T09:38:12;2.60;;;2.30;;
71867;SDS011;59738;48.324;14.230;2022-08-03T09:40:41;2.97;;;2.63;;
71867;SDS011;59738;48.324;14.230;2022-08-03T09:43:10;3.15;;;2.60;;
71867;SDS011;59738;48.324;14.230;2022-08-03T09:45:38;3.92;;;2.38;;
71867;SDS011;59738;48.324;14.230;2022-08-03T09:48:19;3.10;;;2.57;;
71867;SDS011;59738;48.324;14.230;2022-08-03T09:50:48;2.92;;;2.22;;
71867;SDS011;59738;48.324;14.230;2022-08-03T09:53:16;2.90;;;2.50;;
71867;SDS011;59738;48.324;14.230;2022-08-03T09:55:51;3.70;;;2.25;;
71867;SDS011;59738;48.324;14.230;2022-08-03T09:58:22;4.30;;;2.45;;
71867;SDS011;59738;48.324;14.230;2022-08-03T10:00:57;4.57;;;2.40;;
71867;SDS011;59738;48.324;14.230;2022-08-03T10:03:27;2.63;;;2.42;;
71867;SDS011;59738;48.324;14.230;2022-08-03T10:05:56;2.30;;;2.10;;
71867;SDS011;59738;48.324;14.230;2022-08-03T10:08:24;2.58;;;2.35;;
71867;SDS011;59738;48.324;14.230;2022-08-03T10:10:52;2.30;;;2.10;;
71867;SDS011;59738;48.324;14.230;2022-08-03T10:13:21;2.80;;;2.50;;
71867;SDS011;59738;48.324;14.230;2022-08-03T10:15:49;5.18;;;2.20;;
71867;SDS011;59738;48.324;14.230;2022-08-03T10:18:17;4.65;;;2.88;;
71867;SDS011;59738;48.324;14.230;2022-08-03T10:20:48;2.05;;;1.95;;
71867;SDS011;59738;48.324;14.230;2022-08-03T10:23:18;3.05;;;2.40;;
71867;SDS011;59738;48.324;14.230;2022-08-03T10:25:48;3.70;;;2.23;;
71867;SDS011;59738;48.324;14.230;2022-08-03T10:28:22;3.72;;;2.30;;
71867;SDS011;59738;48.324;14.230;2022-08-03T10:30:51;4.18;;;2.40;;
71867;SDS011;59738;48.324;14.230;2022-08-03T10:33:21;4.90;;;2.55;;
71867;SDS011;59738;48.324;14.230;2022-08-03T10:35:55;4.43;;;2.53;;
71867;SDS011;59738;48.324;14.230;2022-08-03T10:38:25;2.30;;;2.10;;
71867;SDS011;59738;48.324;14.230;2022-08-03T10:40:58;2.67;;;2.10;;
71867;SDS011;59738;48.324;14.230;2022-08-03T10:43:30;4.30;;;1.98;;
71867;SDS011;59738;48.324;14.230;2022-08-03T10:46:03;4.97;;;2.47;;
71867;SDS011;59738;48.324;14.230;2022-08-03T10:48:33;6.53;;;2.28;;
71867;SDS011;59738;48.324;14.230;2022-08-03T10:51:02;3.67;;;2.50;;
71867;SDS011;59738;48.324;14.230;2022-08-03T10:53:32;2.65;;;1.90;;
71867;SDS011;59738;48.324;14.230;2022-08-03T10:56:01;3.88;;;1.95;;
71867;SDS011;59738;48.324;14.230;2022-08-03T10:58:50;2.20;;;1.98;;
71867;SDS011;59738;48.324;14.230;2022-08-03T11:01:19;2.47;;;1.90;;
71867;SDS011;59738;48.324;14.230;2022-08-03T11:04:17;2.20;;;2.00;;
71867;SDS011;59738;48.324;14.230;2022-08-03T11:06:46;2.25;;;2.05;;
71867;SDS011;59738;48.324;14.230;2022-08-03T11:09:15;2.15;;;1.80;;
71867;SDS011;59738;48.324;14.230;2022-08-03T11:11:45;4.07;;;1.80;;
71867;SDS011;59738;48.324;14.230;2022-08-03T11:14:17;2.30;;;2.10;;
71867;SDS011;59738;48.324;14.230;2022-08-03T11:16:47;2.67;;;1.93;;
71867;SDS011;59738;48.324;14.230;2022-08-03T11:19:18;1.90;;;1.80;;
71867;SDS011;59738;48.324;14.230;2022-08-03T11:21:54;2.55;;;1.80;;
71867;SDS011;59738;48.324;14.230;2022-08-03T11:27:25;2.28;;;1.80;;
71867;SDS011;59738;48.324;14.230;2022-08-03T11:29:57;2.10;;;1.77;;
71867;SDS011;59738;48.324;14.230;2022-08-03T11:35:21;5.28;;;1.80;;
71867;SDS011;59738;48.324;14.230;2022-08-03T11:38:03;3.75;;;2.13;;
71867;SDS011;59738;48.324;14.230;2022-08-03T11:40:41;2.55;;;2.08;;
71867;SDS011;59738;48.324;14.230;2022-08-03T11:43:42;2.10;;;1.90;;
71867;SDS011;59738;48.324;14.230;2022-08-03T11:46:12;1.80;;;1.70;;
71867;SDS011;59738;48.324;14.230;2022-08-03T11:48:44;2.55;;;1.88;;
71867;SDS011;59738;48.324;14.230;2022-08-03T11:51:20;2.28;;;2.00;;
71867;SDS011;59738;48.324;14.230;2022-08-03T11:53:53;2.15;;;1.80;;
71867;SDS011;59738;48.324;14.230;2022-08-03T11:56:21;2.13;;;2.00;;
71867;SDS011;59738;48.324;14.230;2022-08-03T11:58:49;1.95;;;1.85;;
71867;SDS011;59738;48.324;14.230;2022-08-03T12:01:21;2.58;;;2.10;;
71867;SDS011;59738;48.324;14.230;2022-08-03T12:03:50;2.15;;;1.90;;
71867;SDS011;59738;48.324;14.230;2022-08-03T12:06:18;3.20;;;2.10;;
71867;SDS011;59738;48.324;14.230;2022-08-03T12:08:46;2.07;;;1.87;;
71867;SDS011;59738;48.324;14.230;2022-08-03T12:11:14;2.60;;;1.60;;
71867;SDS011;59738;48.324;14.230;2022-08-03T12:13:42;1.70;;;1.60;;
71867;SDS011;59738;48.324;14.230;2022-08-03T12:16:15;1.80;;;1.70;;
71867;SDS011;59738;48.324;14.230;2022-08-03T12:18:46;1.95;;;1.83;;
71867;SDS011;59738;48.324;14.230;2022-08-03T12:21:21;2.23;;;1.70;;
71867;SDS011;59738;48.324;14.230;2022-08-03T12:23:49;5.32;;;1.90;;
71867;SDS011;59738;48.324;14.230;2022-08-03T12:26:22;2.28;;;1.60;;
71867;SDS011;59738;48.324;14.230;2022-08-03T12:28:49;2.30;;;1.75;;
71867;SDS011;59738;48.324;14.230;2022-08-03T12:31:17;2.50;;;1.83;;
71867;SDS011;59738;48.324;14.230;2022-08-03T12:33:56;3.90;;;1.73;;
71867;SDS011;59738;48.324;14.230;2022-08-03T12:36:26;1.77;;;1.50;;
71867;SDS011;59738;48.324;14.230;2022-08-03T12:38:56;1.60;;;1.50;;
71867;SDS011;59738;48.324;14.230;2022-08-03T12:41:28;1.60;;;1.50;;
71867;SDS011;59738;48.324;14.230;2022-08-03T12:43:57;1.98;;;1.70;;
71867;SDS011;59738;48.324;14.230;2022-08-03T12:46:28;3.13;;;1.70;;
71867;SDS011;59738;48.324;14.230;2022-08-03T12:49:03;2.42;;;1.73;;
71867;SDS011;59738;48.324;14.230;2022-08-03T12:51:36;2.63;;;1.75;;
71867;SDS011;59738;48.324;14.230;2022-08-03T12:54:22;1.92;;;1.80;;
71867;SDS011;59738;48.324;14.230;2022-08-03T12:56:59;3.70;;;1.88;;
71867;SDS011;59738;48.324;14.230;2022-08-03T12:59:28;2.73;;;1.80;;
71867;SDS011;59738;48.324;14.230;2022-08-03T13:01:57;4.60;;;1.63;;
71867;SDS011;59738;48.324;14.230;2022-08-03T13:04:27;1.70;;;1.60;;
71867;SDS011;59738;48.324;14.230;2022-08-03T13:06:56;2.72;;;1.60;;
71867;SDS011;59738;48.324;14.230;2022-08-03T13:09:24;4.00;;;1.70;;
71867;SDS011;59738;48.324;14.230;2022-08-03T13:12:05;2.30;;;1.60;;
71867;SDS011;59738;48.324;14.230;2022-08-03T13:14:34;2.30;;;2.00;;
71867;SDS011;59738;48.324;14.230;2022-08-03T13:17:02;2.33;;;1.80;;
71867;SDS011;59738;48.324;14.230;2022-08-03T13:19:32;6.32;;;1.63;;
71867;SDS011;59738;48.324;14.230;2022-08-03T13:22:06;2.13;;;1.88;;
71867;SDS011;59738;48.324;14.230;2022-08-03T13:24:37;2.20;;;1.60;;
71867;SDS011;59738;48.324;14.230;2022-08-03T13:27:05;1.83;;;1.67;;
71867;SDS011;59738;48.324;14.230;2022-08-03T13:29:33;1.83;;;1.60;;
71867;SDS011;59738;48.324;14.230;2022-08-03T13:32:01;4.43;;;1.70;;
71867;SDS011;59738;48.324;14.230;2022-08-03T13:34:30;1.90;;;1.80;;
71867;SDS011;59738;48.324;14.230;2022-08-03T13:36:59;2.60;;;1.87;;
71867;SDS011;59738;48.324;14.230;2022-08-03T13:39:27;1.70;;;1.60;;
71867;SDS011;59738;48.324;14.230;2022-08-03T13:41:54;2.20;;;1.58;;
71867;SDS011;59738;48.324;14.230;2022-08-03T13:44:22;1.90;;;1.67;;
71867;SDS011;59738;48.324;14.230;2022-08-03T13:46:50;4.30;;;1.83;;
71867;SDS011;59738;48.324;14.230;2022-08-03T13:49:18;1.60;;;1.50;;
71867;SDS011;59738;48.324;14.230;2022-08-03T13:51:45;1.70;;;1.60;;
71867;SDS011;59738;48.324;14.230;2022-08-03T13:54:14;1.90;;;1.70;;
71867;SDS011;59738;48.324;14.230;2022-08-03T13:56:42;1.83;;;1.73;;
71867;SDS011;59738;48.324;14.230;2022-08-03T13:59:14;2.80;;;1.90;;
71867;SDS011;59738;48.324;14.230;2022-08-03T14:01:43;1.70;;;1.60;;
71867;SDS011;59738;48.324;14.230;2022-08-03T14:04:10;5.25;;;1.80;;
71867;SDS011;59738;48.324;14.230;2022-08-03T14:06:38;1.73;;;1.63;;
71867;SDS011;59738;48.324;14.230;2022-08-03T14:09:06;1.77;;;1.63;;
71867;SDS011;59738;48.324;14.230;2022-08-03T14:11:35;3.25;;;1.90;;
71867;SDS011;59738;48.324;14.230;2022-08-03T14:14:02;2.30;;;1.63;;
71867;SDS011;59738;48.324;14.230;2022-08-03T14:16:30;1.65;;;1.42;;
71867;SDS011;59738;48.324;14.230;2022-08-03T14:18:58;1.63;;;1.52;;
71867;SDS011;59738;48.324;14.230;2022-08-03T14:21:26;2.55;;;1.70;;
71867;SDS011;59738;48.324;14.230;2022-08-03T14:23:53;1.77;;;1.67;;
71867;SDS011;59738;48.324;14.230;2022-08-03T14:26:21;2.50;;;1.80;;
71867;SDS011;59738;48.324;14.230;2022-08-03T14:28:50;1.70;;;1.60;;
71867;SDS011;59738;48.324;14.230;2022-08-03T14:31:18;1.70;;;1.60;;
71867;SDS011;59738;48.324;14.230;2022-08-03T14:33:46;1.60;;;1.50;;
71867;SDS011;59738;48.324;14.230;2022-08-03T14:36:14;1.77;;;1.67;;
71867;SDS011;59738;48.324;14.230;2022-08-03T14:38:41;1.90;;;1.70;;
71867;SDS011;59738;48.324;14.230;2022-08-03T14:41:09;2.88;;;1.60;;
71867;SDS011;59738;48.324;14.230;2022-08-03T14:43:37;1.85;;;1.42;;
71867;SDS011;59738;48.324;14.230;2022-08-03T14:46:06;1.80;;;1.63;;
71867;SDS011;59738;48.324;14.230;2022-08-03T14:48:34;1.60;;;1.50;;
71867;SDS011;59738;48.324;14.230;2022-08-03T14:51:01;1.80;;;1.70;;
71867;SDS011;59738;48.324;14.230;2022-08-03T14:53:30;1.60;;;1.50;;
71867;SDS011;59738;48.324;14.230;2022-08-03T14:55:58;2.00;;;1.70;;